sensor_id;sensor_type;location;lat;lon;timestamp;temperature;humidity
66144;SHT31;52947;50.842;6.084;2023-03-24T00:00:46;12.02;87.50
66144;SHT31;52947;50.842;6.084;2023-03-24T00:03:14;11.97;87.92
66144;SHT31;52947;50.842;6.084;2023-03-24T00:05:43;11.94;88.42
66144;SHT31;52947;50.842;6.084;2023-03-24T00:08:11;11.87;88.91
66144;SHT31;52947;50.842;6.084;2023-03-24T00:10:44;11.86;89.02
66144;SHT31;52947;50.842;6.084;2023-03-24T00:13:13;11.82;89.40
66144;SHT31;52947;50.842;6.084;2023-03-24T00:15:43;11.82;89.30
66144;SHT31;52947;50.842;6.084;2023-03-24T00:18:11;11.78;89.45
66144;SHT31;52947;50.842;6.084;2023-03-24T00:20:39;11.82;89.07
66144;SHT31;52947;50.842;6.084;2023-03-24T00:23:07;11.81;89.17
66144;SHT31;52947;50.842;6.084;2023-03-24T00:25:35;11.81;89.17
66144;SHT31;52947;50.842;6.084;2023-03-24T00:28:06;11.92;88.70
66144;SHT31;52947;50.842;6.084;2023-03-24T00:30:35;11.94;88.64
66144;SHT31;52947;50.842;6.084;2023-03-24T00:33:05;11.96;88.88
66144;SHT31;52947;50.842;6.084;2023-03-24T00:35:33;11.94;88.85
66144;SHT31;52947;50.842;6.084;2023-03-24T00:38:01;11.99;88.67
66144;SHT31;52947;50.842;6.084;2023-03-24T00:40:29;12.00;88.86
66144;SHT31;52947;50.842;6.084;2023-03-24T00:42:57;11.99;88.90
66144;SHT31;52947;50.842;6.084;2023-03-24T00:45:25;12.06;88.43
66144;SHT31;52947;50.842;6.084;2023-03-24T00:47:55;12.09;88.51
66144;SHT31;52947;50.842;6.084;2023-03-24T00:50:25;12.09;88.44
66144;SHT31;52947;50.842;6.084;2023-03-24T00:52:54;12.04;88.74
66144;SHT31;52947;50.842;6.084;2023-03-24T00:55:24;12.09;88.50
66144;SHT31;52947;50.842;6.084;2023-03-24T00:57:54;12.14;88.44
66144;SHT31;52947;50.842;6.084;2023-03-24T01:00:24;12.16;88.58
66144;SHT31;52947;50.842;6.084;2023-03-24T01:02:54;12.16;88.58
66144;SHT31;52947;50.842;6.084;2023-03-24T01:05:25;12.20;88.34
66144;SHT31;52947;50.842;6.084;2023-03-24T01:07:55;12.20;88.67
66144;SHT31;52947;50.842;6.084;2023-03-24T01:10:24;12.16;88.84
66144;SHT31;52947;50.842;6.084;2023-03-24T01:12:55;12.14;88.96
66144;SHT31;52947;50.842;6.084;2023-03-24T01:15:25;12.13;89.07
66144;SHT31;52947;50.842;6.084;2023-03-24T01:17:54;12.13;89.17
66144;SHT31;52947;50.842;6.084;2023-03-24T01:20:24;12.13;89.23
66144;SHT31;52947;50.842;6.084;2023-03-24T01:22:53;12.12;89.35
66144;SHT31;52947;50.842;6.084;2023-03-24T01:25:22;12.07;89.73
66144;SHT31;52947;50.842;6.084;2023-03-24T01:27:51;12.12;89.91
66144;SHT31;52947;50.842;6.084;2023-03-24T01:30:21;12.07;89.92
66144;SHT31;52947;50.842;6.084;2023-03-24T01:32:50;12.10;89.76
66144;SHT31;52947;50.842;6.084;2023-03-24T01:35:19;12.16;89.25
66144;SHT31;52947;50.842;6.084;2023-03-24T01:37:49;12.22;89.03
66144;SHT31;52947;50.842;6.084;2023-03-24T01:40:17;12.24;88.90
66144;SHT31;52947;50.842;6.084;2023-03-24T01:42:46;12.23;88.83
66144;SHT31;52947;50.842;6.084;2023-03-24T01:45:41;12.29;88.62
66144;SHT31;52947;50.842;6.084;2023-03-24T01:48:12;12.27;88.86
66144;SHT31;52947;50.842;6.084;2023-03-24T01:50:42;12.30;88.56
66144;SHT31;52947;50.842;6.084;2023-03-24T01:53:13;12.38;87.87
66144;SHT31;52947;50.842;6.084;2023-03-24T01:55:44;12.48;87.48
66144;SHT31;52947;50.842;6.084;2023-03-24T01:58:16;12.58;86.94
66144;SHT31;52947;50.842;6.084;2023-03-24T02:00:53;12.60;86.72
66144;SHT31;52947;50.842;6.084;2023-03-24T02:03:50;12.75;86.34
66144;SHT31;52947;50.842;6.084;2023-03-24T02:06:21;12.74;86.15
66144;SHT31;52947;50.842;6.084;2023-03-24T02:08:57;12.87;85.78
66144;SHT31;52947;50.842;6.084;2023-03-24T02:11:30;12.89;85.65
66144;SHT31;52947;50.842;6.084;2023-03-24T02:14:02;12.92;85.43
66144;SHT31;52947;50.842;6.084;2023-03-24T02:16:43;12.99;85.08
66144;SHT31;52947;50.842;6.084;2023-03-24T02:19:38;13.05;85.08
66144;SHT31;52947;50.842;6.084;2023-03-24T02:22:36;13.11;84.75
66144;SHT31;52947;50.842;6.084;2023-03-24T02:25:38;13.18;84.46
66144;SHT31;52947;50.842;6.084;2023-03-24T02:28:20;13.18;84.53
66144;SHT31;52947;50.842;6.084;2023-03-24T02:31:11;13.25;84.38
66144;SHT31;52947;50.842;6.084;2023-03-24T02:34:10;13.25;84.47
66144;SHT31;52947;50.842;6.084;2023-03-24T02:43:03;13.25;84.70
66144;SHT31;52947;50.842;6.084;2023-03-24T02:45:35;13.23;84.92
66144;SHT31;52947;50.842;6.084;2023-03-24T02:48:18;13.18;85.04
66144;SHT31;52947;50.842;6.084;2023-03-24T02:50:51;13.19;85.03
66144;SHT31;52947;50.842;6.084;2023-03-24T02:53:26;13.20;84.91
66144;SHT31;52947;50.842;6.084;2023-03-24T02:56:31;13.20;84.89
66144;SHT31;52947;50.842;6.084;2023-03-24T02:59:22;13.18;85.09
66144;SHT31;52947;50.842;6.084;2023-03-24T03:02:01;13.43;84.68
66144;SHT31;52947;50.842;6.084;2023-03-24T03:04:38;13.43;84.60
66144;SHT31;52947;50.842;6.084;2023-03-24T03:07:12;13.43;84.53
66144;SHT31;52947;50.842;6.084;2023-03-24T03:09:46;13.43;84.42
66144;SHT31;52947;50.842;6.084;2023-03-24T03:12:19;13.42;84.67
66144;SHT31;52947;50.842;6.084;2023-03-24T03:14:51;13.47;84.24
66144;SHT31;52947;50.842;6.084;2023-03-24T03:17:23;13.50;84.15
66144;SHT31;52947;50.842;6.084;2023-03-24T03:19:59;13.56;84.33
66144;SHT31;52947;50.842;6.084;2023-03-24T03:22:40;13.45;84.30
66144;SHT31;52947;50.842;6.084;2023-03-24T03:25:11;13.39;84.39
66144;SHT31;52947;50.842;6.084;2023-03-24T03:27:43;13.46;84.55
66144;SHT31;52947;50.842;6.084;2023-03-24T03:30:15;13.42;84.28
66144;SHT31;52947;50.842;6.084;2023-03-24T03:32:49;13.32;84.36
66144;SHT31;52947;50.842;6.084;2023-03-24T03:35:23;13.32;84.77
66144;SHT31;52947;50.842;6.084;2023-03-24T03:37:57;13.39;84.37
66144;SHT31;52947;50.842;6.084;2023-03-24T03:40:32;13.42;84.28
66144;SHT31;52947;50.842;6.084;2023-03-24T03:43:10;13.35;84.38
66144;SHT31;52947;50.842;6.084;2023-03-24T03:45:39;13.26;84.75
66144;SHT31;52947;50.842;6.084;2023-03-24T03:48:07;13.09;85.29
66144;SHT31;52947;50.842;6.084;2023-03-24T03:50:36;13.06;85.75
66144;SHT31;52947;50.842;6.084;2023-03-24T03:53:07;12.91;86.10
66144;SHT31;52947;50.842;6.084;2023-03-24T03:55:35;12.74;86.72
66144;SHT31;52947;50.842;6.084;2023-03-24T03:58:04;12.68;87.35
66144;SHT31;52947;50.842;6.084;2023-03-24T04:00:41;12.57;88.18
66144;SHT31;52947;50.842;6.084;2023-03-24T04:06:55;12.22;89.17
66144;SHT31;52947;50.842;6.084;2023-03-24T04:09:36;12.31;88.23
66144;SHT31;52947;50.842;6.084;2023-03-24T04:12:18;12.12;88.63
66144;SHT31;52947;50.842;6.084;2023-03-24T04:15:34;11.96;88.24
66144;SHT31;52947;50.842;6.084;2023-03-24T04:18:39;11.87;88.36
66144;SHT31;52947;50.842;6.084;2023-03-24T04:21:31;11.83;87.54
66144;SHT31;52947;50.842;6.084;2023-03-24T04:24:14;11.93;87.91
66144;SHT31;52947;50.842;6.084;2023-03-24T04:26:50;11.81;88.11
66144;SHT31;52947;50.842;6.084;2023-03-24T04:29:29;11.92;88.05
66144;SHT31;52947;50.842;6.084;2023-03-24T04:32:02;11.99;88.43
66144;SHT31;52947;50.842;6.084;2023-03-24T04:34:36;11.96;87.65
66144;SHT31;52947;50.842;6.084;2023-03-24T04:37:23;11.92;87.34
66144;SHT31;52947;50.842;6.084;2023-03-24T04:39:59;11.94;87.05
66144;SHT31;52947;50.842;6.084;2023-03-24T04:42:33;11.93;87.44
66144;SHT31;52947;50.842;6.084;2023-03-24T04:45:04;11.81;87.28
66144;SHT31;52947;50.842;6.084;2023-03-24T04:48:01;11.82;87.50
66144;SHT31;52947;50.842;6.084;2023-03-24T04:50:43;11.62;87.46
66144;SHT31;52947;50.842;6.084;2023-03-24T04:53:18;11.68;87.05
66144;SHT31;52947;50.842;6.084;2023-03-24T04:55:59;11.54;86.63
66144;SHT31;52947;50.842;6.084;2023-03-24T04:58:53;11.42;85.77
66144;SHT31;52947;50.842;6.084;2023-03-24T05:01:22;11.36;85.55
66144;SHT31;52947;50.842;6.084;2023-03-24T05:04:11;11.12;85.63
66144;SHT31;52947;50.842;6.084;2023-03-24T05:06:40;11.12;85.32
66144;SHT31;52947;50.842;6.084;2023-03-24T05:09:08;10.97;85.65
66144;SHT31;52947;50.842;6.084;2023-03-24T05:11:36;11.10;85.54
66144;SHT31;52947;50.842;6.084;2023-03-24T05:14:07;10.90;85.67
66144;SHT31;52947;50.842;6.084;2023-03-24T05:16:35;10.84;85.05
66144;SHT31;52947;50.842;6.084;2023-03-24T05:19:04;10.77;85.27
66144;SHT31;52947;50.842;6.084;2023-03-24T05:21:33;10.76;84.42
66144;SHT31;52947;50.842;6.084;2023-03-24T05:24:04;10.73;85.55
66144;SHT31;52947;50.842;6.084;2023-03-24T05:26:34;10.61;85.71
66144;SHT31;52947;50.842;6.084;2023-03-24T05:29:08;10.67;85.77
66144;SHT31;52947;50.842;6.084;2023-03-24T05:31:37;10.77;86.29
66144;SHT31;52947;50.842;6.084;2023-03-24T05:34:08;10.70;85.26
66144;SHT31;52947;50.842;6.084;2023-03-24T05:37:02;10.66;85.16
66144;SHT31;52947;50.842;6.084;2023-03-24T05:39:31;10.69;85.10
66144;SHT31;52947;50.842;6.084;2023-03-24T05:42:22;10.39;85.53
66144;SHT31;52947;50.842;6.084;2023-03-24T05:44:50;10.30;86.32
66144;SHT31;52947;50.842;6.084;2023-03-24T05:47:24;10.35;85.65
66144;SHT31;52947;50.842;6.084;2023-03-24T05:49:54;10.46;84.73
66144;SHT31;52947;50.842;6.084;2023-03-24T05:52:21;10.61;85.21
66144;SHT31;52947;50.842;6.084;2023-03-24T05:54:58;10.67;85.05
66144;SHT31;52947;50.842;6.084;2023-03-24T05:57:26;10.84;85.72
66144;SHT31;52947;50.842;6.084;2023-03-24T06:00:28;10.85;84.17
66144;SHT31;52947;50.842;6.084;2023-03-24T06:03:06;10.73;84.45
66144;SHT31;52947;50.842;6.084;2023-03-24T06:05:39;10.59;84.49
66144;SHT31;52947;50.842;6.084;2023-03-24T06:08:07;10.39;85.36
66144;SHT31;52947;50.842;6.084;2023-03-24T06:10:37;10.39;86.25
66144;SHT31;52947;50.842;6.084;2023-03-24T06:13:06;10.43;85.63
66144;SHT31;52947;50.842;6.084;2023-03-24T06:15:37;10.43;86.02
66144;SHT31;52947;50.842;6.084;2023-03-24T06:18:34;10.35;86.02
66144;SHT31;52947;50.842;6.084;2023-03-24T06:21:11;10.23;85.96
66144;SHT31;52947;50.842;6.084;2023-03-24T06:23:41;10.32;85.92
66144;SHT31;52947;50.842;6.084;2023-03-24T06:26:12;10.23;85.69
66144;SHT31;52947;50.842;6.084;2023-03-24T06:28:52;10.23;86.23
66144;SHT31;52947;50.842;6.084;2023-03-24T06:31:22;10.50;85.94
66144;SHT31;52947;50.842;6.084;2023-03-24T06:33:51;10.30;85.86
66144;SHT31;52947;50.842;6.084;2023-03-24T06:36:20;10.45;85.37
66144;SHT31;52947;50.842;6.084;2023-03-24T06:38:49;10.48;85.30
66144;SHT31;52947;50.842;6.084;2023-03-24T06:41:21;10.61;85.51
66144;SHT31;52947;50.842;6.084;2023-03-24T06:43:56;10.50;84.76
66144;SHT31;52947;50.842;6.084;2023-03-24T06:46:24;10.45;84.80
66144;SHT31;52947;50.842;6.084;2023-03-24T06:48:53;10.46;84.70
66144;SHT31;52947;50.842;6.084;2023-03-24T06:51:21;10.43;84.72
66144;SHT31;52947;50.842;6.084;2023-03-24T06:53:49;10.63;84.04
66144;SHT31;52947;50.842;6.084;2023-03-24T06:56:21;10.83;85.09
66144;SHT31;52947;50.842;6.084;2023-03-24T06:58:55;11.66;82.78
66144;SHT31;52947;50.842;6.084;2023-03-24T07:01:27;12.31;80.16
66144;SHT31;52947;50.842;6.084;2023-03-24T07:04:16;13.59;77.03
66144;SHT31;52947;50.842;6.084;2023-03-24T07:06:54;13.84;75.66
66144;SHT31;52947;50.842;6.084;2023-03-24T07:09:44;14.44;74.19
66144;SHT31;52947;50.842;6.084;2023-03-24T07:12:14;15.19;72.23
66144;SHT31;52947;50.842;6.084;2023-03-24T07:14:42;15.75;71.60
66144;SHT31;52947;50.842;6.084;2023-03-24T07:17:11;15.98;68.79
66144;SHT31;52947;50.842;6.084;2023-03-24T07:19:57;16.34;68.05
66144;SHT31;52947;50.842;6.084;2023-03-24T07:22:48;17.32;66.85
66144;SHT31;52947;50.842;6.084;2023-03-24T07:25:38;16.79;64.72
66144;SHT31;52947;50.842;6.084;2023-03-24T07:28:30;15.82;68.52
66144;SHT31;52947;50.842;6.084;2023-03-24T07:31:01;16.13;67.08
66144;SHT31;52947;50.842;6.084;2023-03-24T07:33:30;16.84;65.92
66144;SHT31;52947;50.842;6.084;2023-03-24T07:35:58;16.70;66.16
66144;SHT31;52947;50.842;6.084;2023-03-24T07:38:26;16.29;67.86
66144;SHT31;52947;50.842;6.084;2023-03-24T07:41:00;15.14;69.52
66144;SHT31;52947;50.842;6.084;2023-03-24T07:43:32;15.04;69.57
66144;SHT31;52947;50.842;6.084;2023-03-24T07:46:12;14.90;70.95
66144;SHT31;52947;50.842;6.084;2023-03-24T07:48:40;15.61;68.70
66144;SHT31;52947;50.842;6.084;2023-03-24T07:51:09;16.30;66.21
66144;SHT31;52947;50.842;6.084;2023-03-24T07:53:47;17.14;64.69
66144;SHT31;52947;50.842;6.084;2023-03-24T07:56:24;16.47;65.51
66144;SHT31;52947;50.842;6.084;2023-03-24T07:58:57;16.04;66.95
66144;SHT31;52947;50.842;6.084;2023-03-24T08:01:30;16.18;66.35
66144;SHT31;52947;50.842;6.084;2023-03-24T08:04:01;15.00;67.92
66144;SHT31;52947;50.842;6.084;2023-03-24T08:06:48;13.87;73.04
66144;SHT31;52947;50.842;6.084;2023-03-24T08:09:16;13.94;73.73
66144;SHT31;52947;50.842;6.084;2023-03-24T08:11:43;13.76;73.11
66144;SHT31;52947;50.842;6.084;2023-03-24T08:14:13;14.46;70.81
66144;SHT31;52947;50.842;6.084;2023-03-24T08:16:41;15.03;69.83
66144;SHT31;52947;50.842;6.084;2023-03-24T08:19:11;15.17;70.28
66144;SHT31;52947;50.842;6.084;2023-03-24T08:21:39;15.53;69.00
66144;SHT31;52947;50.842;6.084;2023-03-24T08:24:07;16.20;67.14
66144;SHT31;52947;50.842;6.084;2023-03-24T08:26:35;16.10;68.39
66144;SHT31;52947;50.842;6.084;2023-03-24T08:29:03;15.33;68.12
66144;SHT31;52947;50.842;6.084;2023-03-24T08:31:33;15.50;69.55
66144;SHT31;52947;50.842;6.084;2023-03-24T08:34:03;15.71;68.89
66144;SHT31;52947;50.842;6.084;2023-03-24T08:36:32;15.99;68.52
66144;SHT31;52947;50.842;6.084;2023-03-24T08:39:00;16.73;64.68
66144;SHT31;52947;50.842;6.084;2023-03-24T08:41:28;17.87;60.44
66144;SHT31;52947;50.842;6.084;2023-03-24T08:44:01;19.40;57.96
66144;SHT31;52947;50.842;6.084;2023-03-24T08:46:34;19.84;56.56
66144;SHT31;52947;50.842;6.084;2023-03-24T08:49:02;20.45;54.35
66144;SHT31;52947;50.842;6.084;2023-03-24T08:51:30;20.31;55.77
66144;SHT31;52947;50.842;6.084;2023-03-24T08:53:58;21.43;53.36
66144;SHT31;52947;50.842;6.084;2023-03-24T08:56:27;20.52;53.56
66144;SHT31;52947;50.842;6.084;2023-03-24T08:58:55;20.83;54.86
66144;SHT31;52947;50.842;6.084;2023-03-24T09:01:23;19.90;54.76
66144;SHT31;52947;50.842;6.084;2023-03-24T09:03:52;21.10;54.65
66144;SHT31;52947;50.842;6.084;2023-03-24T09:06:20;19.33;57.40
66144;SHT31;52947;50.842;6.084;2023-03-24T09:08:48;19.19;57.61
66144;SHT31;52947;50.842;6.084;2023-03-24T09:11:18;19.69;57.36
66144;SHT31;52947;50.842;6.084;2023-03-24T09:13:46;18.91;58.13
66144;SHT31;52947;50.842;6.084;2023-03-24T09:16:15;19.16;57.24
66144;SHT31;52947;50.842;6.084;2023-03-24T09:18:44;17.79;60.28
66144;SHT31;52947;50.842;6.084;2023-03-24T09:21:14;17.69;59.31
66144;SHT31;52947;50.842;6.084;2023-03-24T09:23:42;16.85;62.86
66144;SHT31;52947;50.842;6.084;2023-03-24T09:26:10;17.89;59.04
66144;SHT31;52947;50.842;6.084;2023-03-24T09:28:38;18.37;58.12
66144;SHT31;52947;50.842;6.084;2023-03-24T09:31:06;17.55;58.68
66144;SHT31;52947;50.842;6.084;2023-03-24T09:33:34;17.65;61.99
66144;SHT31;52947;50.842;6.084;2023-03-24T09:36:03;18.89;57.91
66144;SHT31;52947;50.842;6.084;2023-03-24T09:38:32;18.61;58.42
66144;SHT31;52947;50.842;6.084;2023-03-24T09:41:02;18.14;59.45
66144;SHT31;52947;50.842;6.084;2023-03-24T09:43:35;17.10;60.08
66144;SHT31;52947;50.842;6.084;2023-03-24T09:46:08;16.67;62.10
66144;SHT31;52947;50.842;6.084;2023-03-24T09:48:41;16.34;63.04
66144;SHT31;52947;50.842;6.084;2023-03-24T09:51:14;15.88;64.69
66144;SHT31;52947;50.842;6.084;2023-03-24T09:53:53;15.72;64.43
66144;SHT31;52947;50.842;6.084;2023-03-24T09:56:24;16.81;62.09
66144;SHT31;52947;50.842;6.084;2023-03-24T09:59:02;18.17;59.34
66144;SHT31;52947;50.842;6.084;2023-03-24T10:01:32;18.76;57.14
66144;SHT31;52947;50.842;6.084;2023-03-24T10:04:01;18.58;58.03
66144;SHT31;52947;50.842;6.084;2023-03-24T10:06:32;19.03;57.68
66144;SHT31;52947;50.842;6.084;2023-03-24T10:09:16;19.95;55.47
66144;SHT31;52947;50.842;6.084;2023-03-24T10:11:54;20.97;53.95
66144;SHT31;52947;50.842;6.084;2023-03-24T10:14:35;19.46;55.93
66144;SHT31;52947;50.842;6.084;2023-03-24T10:17:11;17.56;57.92
66144;SHT31;52947;50.842;6.084;2023-03-24T10:19:46;16.84;61.13
66144;SHT31;52947;50.842;6.084;2023-03-24T10:22:19;17.43;60.50
66144;SHT31;52947;50.842;6.084;2023-03-24T10:24:55;16.76;61.49
66144;SHT31;52947;50.842;6.084;2023-03-24T10:27:29;16.10;63.31
66144;SHT31;52947;50.842;6.084;2023-03-24T10:30:02;17.36;58.99
66144;SHT31;52947;50.842;6.084;2023-03-24T10:32:33;16.95;62.18
66144;SHT31;52947;50.842;6.084;2023-03-24T10:35:03;18.29;57.53
66144;SHT31;52947;50.842;6.084;2023-03-24T10:37:36;18.47;57.54
66144;SHT31;52947;50.842;6.084;2023-03-24T10:40:13;17.87;58.57
66144;SHT31;52947;50.842;6.084;2023-03-24T10:42:43;17.87;57.87
66144;SHT31;52947;50.842;6.084;2023-03-24T10:45:13;17.19;59.62
66144;SHT31;52947;50.842;6.084;2023-03-24T10:47:41;16.95;59.95
66144;SHT31;52947;50.842;6.084;2023-03-24T10:50:10;18.68;57.40
66144;SHT31;52947;50.842;6.084;2023-03-24T10:52:42;19.08;55.47
66144;SHT31;52947;50.842;6.084;2023-03-24T10:55:16;17.58;56.84
66144;SHT31;52947;50.842;6.084;2023-03-24T10:57:47;16.81;59.38
66144;SHT31;52947;50.842;6.084;2023-03-24T11:00:20;18.16;58.08
66144;SHT31;52947;50.842;6.084;2023-03-24T11:02:55;19.01;55.14
66144;SHT31;52947;50.842;6.084;2023-03-24T11:05:28;18.62;55.68
66144;SHT31;52947;50.842;6.084;2023-03-24T11:08:11;17.82;55.94
66144;SHT31;52947;50.842;6.084;2023-03-24T11:10:43;18.17;56.66
66144;SHT31;52947;50.842;6.084;2023-03-24T11:13:16;17.17;57.66
66144;SHT31;52947;50.842;6.084;2023-03-24T11:15:55;16.25;60.67
66144;SHT31;52947;50.842;6.084;2023-03-24T11:18:24;15.85;62.40
66144;SHT31;52947;50.842;6.084;2023-03-24T11:20:54;16.23;62.73
66144;SHT31;52947;50.842;6.084;2023-03-24T11:23:28;17.75;58.14
66144;SHT31;52947;50.842;6.084;2023-03-24T11:26:10;17.01;60.19
66144;SHT31;52947;50.842;6.084;2023-03-24T11:28:41;16.08;60.31
66144;SHT31;52947;50.842;6.084;2023-03-24T11:31:13;15.71;61.43
66144;SHT31;52947;50.842;6.084;2023-03-24T11:33:54;15.84;61.90
66144;SHT31;52947;50.842;6.084;2023-03-24T11:36:46;15.74;61.18
66144;SHT31;52947;50.842;6.084;2023-03-24T11:39:18;15.57;61.19
66144;SHT31;52947;50.842;6.084;2023-03-24T11:41:59;15.36;61.46
66144;SHT31;52947;50.842;6.084;2023-03-24T11:44:31;15.38;63.25
66144;SHT31;52947;50.842;6.084;2023-03-24T11:47:02;17.32;58.57
66144;SHT31;52947;50.842;6.084;2023-03-24T11:49:33;18.31;57.30
66144;SHT31;52947;50.842;6.084;2023-03-24T11:52:08;18.01;56.20
66144;SHT31;52947;50.842;6.084;2023-03-24T11:54:42;17.75;56.24
66144;SHT31;52947;50.842;6.084;2023-03-24T11:57:14;18.47;53.88
66144;SHT31;52947;50.842;6.084;2023-03-24T11:59:49;19.22;54.28
66144;SHT31;52947;50.842;6.084;2023-03-24T12:02:35;17.76;54.74
66144;SHT31;52947;50.842;6.084;2023-03-24T12:05:20;16.55;58.00
66144;SHT31;52947;50.842;6.084;2023-03-24T12:08:17;18.20;54.58
66144;SHT31;52947;50.842;6.084;2023-03-24T12:10:58;17.24;55.34
66144;SHT31;52947;50.842;6.084;2023-03-24T12:13:35;17.66;55.39
66144;SHT31;52947;50.842;6.084;2023-03-24T12:16:14;18.62;53.35
66144;SHT31;52947;50.842;6.084;2023-03-24T12:18:57;17.58;55.73
66144;SHT31;52947;50.842;6.084;2023-03-24T12:21:38;16.45;56.40
66144;SHT31;52947;50.842;6.084;2023-03-24T12:24:16;16.91;56.81
66144;SHT31;52947;50.842;6.084;2023-03-24T12:26:48;17.61;55.20
66144;SHT31;52947;50.842;6.084;2023-03-24T12:29:50;17.63;55.12
66144;SHT31;52947;50.842;6.084;2023-03-24T12:32:29;18.16;54.53
66144;SHT31;52947;50.842;6.084;2023-03-24T12:37:48;18.18;55.94
66144;SHT31;52947;50.842;6.084;2023-03-24T12:40:33;17.63;56.08
66144;SHT31;52947;50.842;6.084;2023-03-24T12:43:14;17.36;57.56
66144;SHT31;52947;50.842;6.084;2023-03-24T12:45:48;16.74;58.06
66144;SHT31;52947;50.842;6.084;2023-03-24T12:48:37;16.42;59.39
66144;SHT31;52947;50.842;6.084;2023-03-24T12:51:18;16.84;57.86
66144;SHT31;52947;50.842;6.084;2023-03-24T12:53:54;18.18;54.19
66144;SHT31;52947;50.842;6.084;2023-03-24T12:56:32;19.11;53.98
66144;SHT31;52947;50.842;6.084;2023-03-24T12:59:05;18.65;52.53
66144;SHT31;52947;50.842;6.084;2023-03-24T13:01:40;17.28;55.62
66144;SHT31;52947;50.842;6.084;2023-03-24T13:04:10;16.59;57.13
66144;SHT31;52947;50.842;6.084;2023-03-24T13:06:43;16.10;57.88
66144;SHT31;52947;50.842;6.084;2023-03-24T13:09:20;16.74;57.15
66144;SHT31;52947;50.842;6.084;2023-03-24T13:11:55;16.50;58.51
66144;SHT31;52947;50.842;6.084;2023-03-24T13:14:28;16.15;58.73
66144;SHT31;52947;50.842;6.084;2023-03-24T13:17:04;15.84;61.14
66144;SHT31;52947;50.842;6.084;2023-03-24T13:19:35;15.75;61.79
66144;SHT31;52947;50.842;6.084;2023-03-24T13:22:05;15.26;62.62
66144;SHT31;52947;50.842;6.084;2023-03-24T13:24:36;14.97;63.58
66144;SHT31;52947;50.842;6.084;2023-03-24T13:27:09;14.77;64.17
66144;SHT31;52947;50.842;6.084;2023-03-24T13:32:52;14.49;64.26
66144;SHT31;52947;50.842;6.084;2023-03-24T13:35:35;14.20;66.92
66144;SHT31;52947;50.842;6.084;2023-03-24T13:38:12;14.75;66.44
66144;SHT31;52947;50.842;6.084;2023-03-24T13:40:49;15.24;64.52
66144;SHT31;52947;50.842;6.084;2023-03-24T13:43:21;15.14;64.69
66144;SHT31;52947;50.842;6.084;2023-03-24T13:45:51;15.06;65.57
66144;SHT31;52947;50.842;6.084;2023-03-24T13:48:31;14.95;65.30
66144;SHT31;52947;50.842;6.084;2023-03-24T13:51:03;15.19;63.74
66144;SHT31;52947;50.842;6.084;2023-03-24T13:53:36;15.20;64.72
66144;SHT31;52947;50.842;6.084;2023-03-24T13:56:06;15.27;63.08
66144;SHT31;52947;50.842;6.084;2023-03-24T13:58:47;14.59;65.79
66144;SHT31;52947;50.842;6.084;2023-03-24T14:01:29;14.03;66.78
66144;SHT31;52947;50.842;6.084;2023-03-24T14:04:21;14.51;66.61
66144;SHT31;52947;50.842;6.084;2023-03-24T14:06:50;14.58;65.95
66144;SHT31;52947;50.842;6.084;2023-03-24T14:09:20;14.54;66.16
66144;SHT31;52947;50.842;6.084;2023-03-24T14:12:08;14.64;66.42
66144;SHT31;52947;50.842;6.084;2023-03-24T14:17:46;14.75;63.92
66144;SHT31;52947;50.842;6.084;2023-03-24T14:20:31;14.83;63.11
66144;SHT31;52947;50.842;6.084;2023-03-24T14:22:59;15.04;62.77
66144;SHT31;52947;50.842;6.084;2023-03-24T14:25:31;15.04;61.05
66144;SHT31;52947;50.842;6.084;2023-03-24T14:28:10;14.86;61.75
66144;SHT31;52947;50.842;6.084;2023-03-24T14:30:58;14.69;62.63
66144;SHT31;52947;50.842;6.084;2023-03-24T14:33:28;14.83;62.92
66144;SHT31;52947;50.842;6.084;2023-03-24T14:36:01;14.87;63.31
66144;SHT31;52947;50.842;6.084;2023-03-24T14:38:34;14.85;64.03
66144;SHT31;52947;50.842;6.084;2023-03-24T14:41:07;14.83;63.97
66144;SHT31;52947;50.842;6.084;2023-03-24T14:43:54;14.68;64.75
66144;SHT31;52947;50.842;6.084;2023-03-24T14:46:35;14.66;64.23
66144;SHT31;52947;50.842;6.084;2023-03-24T14:49:05;14.49;65.31
66144;SHT31;52947;50.842;6.084;2023-03-24T14:51:44;14.42;66.59
66144;SHT31;52947;50.842;6.084;2023-03-24T14:54:15;14.44;66.19
66144;SHT31;52947;50.842;6.084;2023-03-24T14:56:47;14.36;66.08
66144;SHT31;52947;50.842;6.084;2023-03-24T14:59:28;14.35;66.32
66144;SHT31;52947;50.842;6.084;2023-03-24T15:02:01;14.34;66.33
66144;SHT31;52947;50.842;6.084;2023-03-24T15:04:31;14.31;67.30
66144;SHT31;52947;50.842;6.084;2023-03-24T15:07:11;14.13;66.90
66144;SHT31;52947;50.842;6.084;2023-03-24T15:09:47;13.94;69.28
66144;SHT31;52947;50.842;6.084;2023-03-24T15:12:15;13.84;69.32
66144;SHT31;52947;50.842;6.084;2023-03-24T15:14:43;13.76;69.41
66144;SHT31;52947;50.842;6.084;2023-03-24T15:17:17;13.69;68.27
66144;SHT31;52947;50.842;6.084;2023-03-24T15:19:48;13.52;66.77
66144;SHT31;52947;50.842;6.084;2023-03-24T15:22:19;13.59;67.73
66144;SHT31;52947;50.842;6.084;2023-03-24T15:24:48;13.73;68.63
66144;SHT31;52947;50.842;6.084;2023-03-24T15:27:23;13.60;71.64
66144;SHT31;52947;50.842;6.084;2023-03-24T15:29:54;13.50;72.14
66144;SHT31;52947;50.842;6.084;2023-03-24T15:32:24;13.49;72.60
66144;SHT31;52947;50.842;6.084;2023-03-24T15:34:59;13.38;72.00
66144;SHT31;52947;50.842;6.084;2023-03-24T15:37:34;13.47;73.16
66144;SHT31;52947;50.842;6.084;2023-03-24T15:40:30;13.38;72.94
66144;SHT31;52947;50.842;6.084;2023-03-24T15:43:01;13.39;73.39
66144;SHT31;52947;50.842;6.084;2023-03-24T15:45:31;13.42;74.50
66144;SHT31;52947;50.842;6.084;2023-03-24T15:48:04;13.18;74.00
66144;SHT31;52947;50.842;6.084;2023-03-24T15:50:36;12.72;74.06
66144;SHT31;52947;50.842;6.084;2023-03-24T15:53:19;12.68;76.43
66144;SHT31;52947;50.842;6.084;2023-03-24T15:56:00;12.67;76.29
66144;SHT31;52947;50.842;6.084;2023-03-24T15:58:30;12.74;77.62
66144;SHT31;52947;50.842;6.084;2023-03-24T16:01:00;12.48;76.64
66144;SHT31;52947;50.842;6.084;2023-03-24T16:03:32;12.60;77.16
66144;SHT31;52947;50.842;6.084;2023-03-24T16:06:01;12.43;77.15
66144;SHT31;52947;50.842;6.084;2023-03-24T16:08:33;12.06;76.77
66144;SHT31;52947;50.842;6.084;2023-03-24T16:11:06;11.62;78.48
66144;SHT31;52947;50.842;6.084;2023-03-24T16:13:37;11.18;80.50
66144;SHT31;52947;50.842;6.084;2023-03-24T16:16:19;11.11;81.47
66144;SHT31;52947;50.842;6.084;2023-03-24T16:18:49;11.18;82.02
66144;SHT31;52947;50.842;6.084;2023-03-24T16:21:18;11.18;82.15
66144;SHT31;52947;50.842;6.084;2023-03-24T16:23:49;11.17;82.27
66144;SHT31;52947;50.842;6.084;2023-03-24T16:26:19;11.24;81.74
66144;SHT31;52947;50.842;6.084;2023-03-24T16:28:47;11.35;81.65
66144;SHT31;52947;50.842;6.084;2023-03-24T16:31:20;11.41;81.06
66144;SHT31;52947;50.842;6.084;2023-03-24T16:33:50;11.39;80.30